createdAt,value
2022-12-14T00:04:43.321Z,9.00
2022-12-14T00:09:47.199Z,10.25
2022-12-14T00:14:50.012Z,9.00
2022-12-14T00:19:54.889Z,9.00
2022-12-14T00:24:57.749Z,8.50
2022-12-14T00:30:00.695Z,8.75
2022-12-14T00:35:05.202Z,8.75
2022-12-14T00:40:10.411Z,9.00
2022-12-14T00:45:13.172Z,7.50
2022-12-14T00:50:17.469Z,8.00
2022-12-14T00:55:20.306Z,10.00
2022-12-14T01:00:23.163Z,9.00
2022-12-14T01:05:27.465Z,8.00
2022-12-14T01:10:30.459Z,9.00
2022-12-14T01:15:35.831Z,8.00
2022-12-14T01:20:40.000Z,9.00
2022-12-14T01:25:42.748Z,7.75
2022-12-14T01:30:45.514Z,7.50
2022-12-14T01:35:49.624Z,9.50
2022-12-14T01:40:58.454Z,9.00
2022-12-14T01:46:01.228Z,8.75
2022-12-14T01:51:05.699Z,8.00
2022-12-14T01:56:08.908Z,6.75
2022-12-14T02:01:12.604Z,9.00
2022-12-14T02:06:22.036Z,8.00
2022-12-14T02:11:34.007Z,8.00
2022-12-14T02:16:36.901Z,9.00
2022-12-14T02:22:02.925Z,8.50
2022-12-14T02:27:19.101Z,7.75
2022-12-14T02:32:38.517Z,7.00
2022-12-14T02:37:53.232Z,6.75
2022-12-14T02:43:08.349Z,6.50
2022-12-14T02:48:18.279Z,8.00
2022-12-14T02:53:27.921Z,7.75
2022-12-14T02:58:36.020Z,7.00
2022-12-14T03:03:40.423Z,8.75
2022-12-14T03:08:47.240Z,8.00
2022-12-14T03:13:54.687Z,6.25
2022-12-14T03:19:04.347Z,5.00
2022-12-14T03:24:12.469Z,7.50
2022-12-14T03:29:21.171Z,6.75
2022-12-14T03:34:32.057Z,8.75
2022-12-14T03:39:36.867Z,7.00
2022-12-14T03:44:49.435Z,6.75
2022-12-14T03:50:02.075Z,6.00
2022-12-14T03:55:21.423Z,6.00
2022-12-14T04:00:26.249Z,6.00
2022-12-14T04:05:37.524Z,7.25
2022-12-14T04:11:02.991Z,6.25
2022-12-14T04:16:27.739Z,7.00
2022-12-14T04:21:40.168Z,6.50
2022-12-14T04:26:50.235Z,5.00
2022-12-14T04:32:00.160Z,6.25
2022-12-14T04:37:09.931Z,5.50
2022-12-14T04:42:17.100Z,5.50
2022-12-14T04:47:20.957Z,7.25
2022-12-14T04:52:29.649Z,6.50
2022-12-14T04:57:37.473Z,6.50
2022-12-14T05:03:01.386Z,7.00
2022-12-14T05:08:12.594Z,6.25
2022-12-14T05:13:19.800Z,6.00
2022-12-14T05:18:23.175Z,7.00
2022-12-14T05:23:27.642Z,6.25
2022-12-14T05:28:30.589Z,5.50
2022-12-14T05:33:33.372Z,6.75
2022-12-14T05:38:37.563Z,4.50
2022-12-14T05:43:41.392Z,7.00
2022-12-14T05:48:48.991Z,5.00
2022-12-14T05:53:53.651Z,5.00
2022-12-14T05:58:56.425Z,5.00
2022-12-14T06:03:59.293Z,5.00
2022-12-14T06:09:07.091Z,4.50
2022-12-14T06:14:11.380Z,5.00
2022-12-14T06:19:15.747Z,5.00
2022-12-14T06:24:19.887Z,5.00
2022-12-14T06:29:22.758Z,5.50
2022-12-14T06:34:28.654Z,5.00
2022-12-14T06:39:33.105Z,5.00
2022-12-14T06:44:35.990Z,4.00
2022-12-14T06:49:38.765Z,4.00
2022-12-14T06:54:42.983Z,4.00
2022-12-14T06:59:45.721Z,6.00
2022-12-14T07:04:48.516Z,3.75
2022-12-14T07:09:52.786Z,4.00
2022-12-14T07:14:56.093Z,3.75
2022-12-14T07:19:58.826Z,4.25
2022-12-14T07:25:03.209Z,5.00
2022-12-14T07:30:07.862Z,4.00
2022-12-14T07:35:16.393Z,5.00
2022-12-14T07:40:21.441Z,4.00
2022-12-14T07:45:25.502Z,4.25
2022-12-14T07:50:28.663Z,4.00
2022-12-14T07:55:35.872Z,4.00
2022-12-14T08:00:38.874Z,4.00
2022-12-14T08:05:41.788Z,4.50
2022-12-14T08:10:49.486Z,4.75
2022-12-14T08:15:52.301Z,4.00
2022-12-14T08:20:55.069Z,4.00
2022-12-14T08:26:01.303Z,4.25
2022-12-14T08:31:09.114Z,4.00
2022-12-14T08:36:14.126Z,3.75
2022-12-14T08:41:18.273Z,3.00
2022-12-14T08:46:30.671Z,2.50
2022-12-14T08:51:33.648Z,3.00
2022-12-14T08:56:38.842Z,4.25
2022-12-14T09:01:42.289Z,4.00
2022-12-14T09:06:45.218Z,4.50
2022-12-14T09:11:49.325Z,3.00
2022-12-14T09:16:52.363Z,4.00
2022-12-14T09:21:56.243Z,4.00
2022-12-14T09:27:01.799Z,3.50
2022-12-14T09:32:04.955Z,4.00
2022-12-14T09:37:07.804Z,3.75
2022-12-14T09:42:28.960Z,3.00
2022-12-14T09:47:38.985Z,4.00
2022-12-14T09:52:46.471Z,21.00
2022-12-14T09:57:54.959Z,22.00
2022-12-14T10:03:21.156Z,21.00
2022-12-14T10:08:29.518Z,16.60
2022-12-14T10:13:46.027Z,16.00
2022-12-14T10:19:11.642Z,13.00
2022-12-14T10:24:20.935Z,11.75
2022-12-14T10:29:32.299Z,11.00
2022-12-14T10:34:36.175Z,11.00
2022-12-14T10:39:49.766Z,10.50
2022-12-14T10:45:39.204Z,9.25
2022-12-14T10:50:40.035Z,9.00
2022-12-14T10:55:45.290Z,8.00
2022-12-14T11:00:53.964Z,9.00
2022-12-14T11:06:01.812Z,8.75
2022-12-14T11:11:13.982Z,7.00
2022-12-14T11:16:37.466Z,8.00
2022-12-14T11:21:40.748Z,9.00
2022-12-14T11:26:44.956Z,8.25
2022-12-14T11:31:52.437Z,8.00
2022-12-14T11:36:55.200Z,8.00
2022-12-14T11:42:02.407Z,7.25
2022-12-14T11:47:13.537Z,6.75
2022-12-14T11:52:19.731Z,8.00
2022-12-14T11:57:29.129Z,8.00
2022-12-14T12:02:36.268Z,6.25
2022-12-14T12:07:43.327Z,6.50
2022-12-14T12:12:54.581Z,6.25
2022-12-14T12:18:06.048Z,5.00
2022-12-14T12:23:15.402Z,8.00
2022-12-14T12:28:25.321Z,7.50
2022-12-14T12:33:36.105Z,7.50
2022-12-14T12:38:50.338Z,7.00
2022-12-14T12:43:58.306Z,6.25
2022-12-14T12:49:06.971Z,6.00
2022-12-14T12:54:17.392Z,7.75
2022-12-14T12:59:24.280Z,7.25
2022-12-14T13:04:34.498Z,5.25
2022-12-14T13:09:43.222Z,6.00
2022-12-14T13:14:50.241Z,6.00
2022-12-14T13:19:57.500Z,7.00
2022-12-14T13:25:06.511Z,6.50
2022-12-14T13:30:22.875Z,6.00
2022-12-14T13:35:43.666Z,5.00
2022-12-14T13:41:16.481Z,6.00
2022-12-14T13:46:23.569Z,5.50
2022-12-14T13:51:31.805Z,5.25
2022-12-14T13:56:38.311Z,6.00
2022-12-14T14:01:57.755Z,6.00
2022-12-14T14:07:33.911Z,6.00
2022-12-14T14:12:45.601Z,5.00
2022-12-14T14:17:52.435Z,5.50
2022-12-14T14:23:28.456Z,6.00
2022-12-14T14:28:33.226Z,6.50
2022-12-14T14:33:46.130Z,5.00
2022-12-14T14:38:50.882Z,5.50
2022-12-14T14:43:59.947Z,5.50
2022-12-14T14:49:03.015Z,5.00
2022-12-14T15:00:02.666Z,5.50
2022-12-14T15:10:35.389Z,5.50
2022-12-14T15:15:45.201Z,4.50
2022-12-14T15:20:58.887Z,4.00
2022-12-14T15:26:03.570Z,4.00
2022-12-14T15:31:08.527Z,4.25
2022-12-14T15:36:17.375Z,4.25
2022-12-14T15:41:20.928Z,4.75
2022-12-14T15:46:28.366Z,5.00
2022-12-14T15:51:34.128Z,6.00
2022-12-14T15:56:40.665Z,5.00
2022-12-14T16:01:53.637Z,5.00
2022-12-14T16:07:09.075Z,4.50
2022-12-14T16:12:20.719Z,4.00
2022-12-14T16:17:30.593Z,4.00
2022-12-14T16:22:34.061Z,5.50
2022-12-14T16:27:40.352Z,4.25
2022-12-14T16:32:49.761Z,4.00
2022-12-14T16:37:55.670Z,4.00
2022-12-14T16:42:58.581Z,4.25
2022-12-14T16:48:08.242Z,4.00
2022-12-14T16:53:17.398Z,4.50
2022-12-14T16:58:20.147Z,4.00
2022-12-14T17:03:24.860Z,4.00
2022-12-14T17:08:28.197Z,4.50
2022-12-14T17:13:31.407Z,5.00
2022-12-14T17:18:39.499Z,5.00
2022-12-14T17:23:45.158Z,5.25
2022-12-14T17:28:47.934Z,5.50
2022-12-14T17:33:53.881Z,5.00
2022-12-14T17:38:56.793Z,4.00
2022-12-14T17:43:59.623Z,4.50
2022-12-14T17:49:06.620Z,4.50
2022-12-14T17:54:15.648Z,4.75
2022-12-14T17:59:18.438Z,4.75
2022-12-14T18:04:22.585Z,4.50
2022-12-14T18:09:25.319Z,5.25
2022-12-14T18:14:28.156Z,5.25
2022-12-14T18:19:33.973Z,5.00
2022-12-14T18:24:36.841Z,4.00
2022-12-14T18:29:39.692Z,3.75
2022-12-14T18:34:43.838Z,4.00
2022-12-14T18:39:49.515Z,4.75
2022-12-14T18:44:52.410Z,4.00
2022-12-14T18:49:57.676Z,6.00
2022-12-14T18:55:00.581Z,7.00
2022-12-14T19:00:05.077Z,6.00
2022-12-14T19:05:10.394Z,7.00
2022-12-14T19:10:17.932Z,6.75
2022-12-14T19:15:23.999Z,6.50
2022-12-14T19:20:29.506Z,7.25
2022-12-14T19:25:32.782Z,7.00
2022-12-14T19:30:35.838Z,5.50
2022-12-14T19:35:42.646Z,8.50
2022-12-14T19:40:47.260Z,5.00
2022-12-14T19:45:50.221Z,7.00
2022-12-14T19:50:54.404Z,8.00
2022-12-14T19:55:57.247Z,6.25
2022-12-14T20:01:00.383Z,8.25
2022-12-14T20:06:05.815Z,8.25
2022-12-14T20:11:10.343Z,7.50
2022-12-14T20:16:17.365Z,7.25
2022-12-14T20:21:23.020Z,8.25
2022-12-14T20:26:26.538Z,5.75
2022-12-14T20:31:29.316Z,8.00
2022-12-14T20:36:33.814Z,8.25
2022-12-14T20:41:36.746Z,7.00
2022-12-14T20:46:42.205Z,8.25
2022-12-14T20:51:47.573Z,9.00
2022-12-14T20:56:50.406Z,10.00
2022-12-14T21:01:56.125Z,9.50
2022-12-14T21:07:00.925Z,8.00
2022-12-14T21:12:21.980Z,9.00
2022-12-14T21:17:26.748Z,8.75
2022-12-14T21:22:31.394Z,9.00
2022-12-14T21:27:38.155Z,8.50
2022-12-14T21:32:41.338Z,8.00
2022-12-14T21:37:45.521Z,8.25
2022-12-14T21:42:50.466Z,9.00
2022-12-14T21:47:53.364Z,8.75
2022-12-14T21:52:57.455Z,10.75
2022-12-14T21:58:18.493Z,8.50
2022-12-14T22:03:21.530Z,8.00
2022-12-14T22:08:26.033Z,9.00
2022-12-14T22:13:29.132Z,9.00
2022-12-14T22:18:32.155Z,9.00
2022-12-14T22:23:42.868Z,8.75
2022-12-14T22:28:46.579Z,8.25
2022-12-14T22:33:50.143Z,7.50
2022-12-14T22:38:57.228Z,8.25
2022-12-14T22:43:59.960Z,8.25
2022-12-14T22:49:02.767Z,8.00
2022-12-14T22:54:07.171Z,7.00
2022-12-14T22:59:16.821Z,8.00
2022-12-14T23:04:19.700Z,8.25
2022-12-14T23:09:41.665Z,7.25
2022-12-14T23:15:01.839Z,7.75
2022-12-14T23:20:22.851Z,8.00
2022-12-14T23:25:44.373Z,7.00
2022-12-14T23:31:04.495Z,8.00
2022-12-14T23:36:25.375Z,7.00
2022-12-14T23:41:47.013Z,9.00
2022-12-14T23:47:07.277Z,7.00
2022-12-14T23:52:27.336Z,7.00
2022-12-14T23:57:48.753Z,7.50
